createdAt,value
2022-11-08T00:03:22.660Z,21.1
2022-11-08T00:08:44.309Z,21.1
2022-11-08T00:14:05.615Z,21.1
2022-11-08T00:19:27.775Z,21.1
2022-11-08T00:25:04.731Z,21.1
2022-11-08T00:30:26.503Z,21.1
2022-11-08T00:36:03.021Z,21.1
2022-11-08T00:41:41.548Z,21.1
2022-11-08T00:47:18.946Z,21.1
2022-11-08T00:52:55.658Z,21.1
2022-11-08T00:58:55.211Z,21.1
2022-11-08T01:04:33.426Z,21.1
2022-11-08T01:09:54.645Z,21.1
2022-11-08T01:15:32.585Z,21.1
2022-11-08T01:20:54.610Z,21.1
2022-11-08T01:26:16.403Z,21
2022-11-08T01:31:54.657Z,21
2022-11-08T01:37:32.415Z,21.1
2022-11-08T01:43:09.248Z,21.1
2022-11-08T01:48:16.270Z,21.1
2022-11-08T01:53:38.859Z,21
2022-11-08T01:59:14.892Z,21.1
2022-11-08T02:04:52.894Z,21
2022-11-08T02:10:13.749Z,21.1
2022-11-08T02:15:56.042Z,21
2022-11-08T02:21:18.294Z,21.1
2022-11-08T02:26:55.845Z,21
2022-11-08T02:32:16.872Z,21
2022-11-08T02:37:54.701Z,21
2022-11-08T02:43:30.998Z,21
2022-11-08T02:49:11.207Z,21
2022-11-08T02:54:48.610Z,21
2022-11-08T03:00:09.608Z,21
2022-11-08T03:05:47.959Z,21
2022-11-08T03:10:54.713Z,21
2022-11-08T03:16:33.270Z,21.1
2022-11-08T03:22:14.905Z,21
2022-11-08T03:27:52.363Z,21
2022-11-08T03:33:29.609Z,21
2022-11-08T03:38:50.322Z,21
2022-11-08T03:44:12.374Z,21
2022-11-08T03:49:49.754Z,21
2022-11-08T03:55:26.178Z,21.1
2022-11-08T04:01:03.772Z,21
2022-11-08T04:06:25.987Z,21.1
2022-11-08T04:12:03.270Z,21
2022-11-08T04:17:45.787Z,21.1
2022-11-08T04:23:23.909Z,21
2022-11-08T04:29:00.938Z,21.1
2022-11-08T04:34:07.511Z,21
2022-11-08T04:39:30.109Z,21
2022-11-08T04:44:55.188Z,21
2022-11-08T04:50:23.775Z,21
2022-11-08T04:56:00.920Z,21
2022-11-08T05:01:13.254Z,20.9
2022-11-08T05:06:52.394Z,20.9
2022-11-08T05:12:19.815Z,20.9
2022-11-08T05:17:57.351Z,20.9
2022-11-08T05:23:27.237Z,20.9
2022-11-08T05:29:04.104Z,20.9
2022-11-08T05:34:44.965Z,20.9
2022-11-08T05:40:30.675Z,20.9
2022-11-08T05:45:53.645Z,20.9
2022-11-08T05:51:15.215Z,20.9
2022-11-08T05:56:53.486Z,20.9
2022-11-08T06:02:30.601Z,20.9
2022-11-08T06:08:10.556Z,20.9
2022-11-08T06:13:54.571Z,20.9
2022-11-08T06:19:32.024Z,20.9
2022-11-08T06:25:10.165Z,20.9
2022-11-08T06:30:51.919Z,20.9
2022-11-08T06:36:15.922Z,20.9
2022-11-08T06:41:42.291Z,20.9
2022-11-08T06:47:05.809Z,20.9
2022-11-08T06:52:48.697Z,20.9
2022-11-08T06:58:31.402Z,20.9
2022-11-08T07:04:10.493Z,20.9
2022-11-08T07:09:35.184Z,20.9
2022-11-08T07:15:12.199Z,20.9
2022-11-08T07:20:50.420Z,20.9
2022-11-08T07:26:28.303Z,20.8
2022-11-08T07:32:07.070Z,20.8
2022-11-08T07:37:29.693Z,20.8
2022-11-08T07:43:35.137Z,20.8
2022-11-08T07:49:11.583Z,20.8
2022-11-08T07:54:53.710Z,20.8
2022-11-08T08:00:31.201Z,20.8
2022-11-08T08:06:10.045Z,20.8
2022-11-08T08:11:54.269Z,20.8
2022-11-08T08:17:31.364Z,20.8
2022-11-08T08:22:55.124Z,20.8
2022-11-08T08:28:32.957Z,20.8
2022-11-08T08:34:45.905Z,20.8
2022-11-08T08:40:30.105Z,20.8
2022-11-08T08:46:09.822Z,20.8
2022-11-08T08:51:47.282Z,20.8
2022-11-08T08:57:24.480Z,20.8
2022-11-08T09:05:35.253Z,20.7
2022-11-08T09:10:58.413Z,20.7
2022-11-08T09:16:22.947Z,20.7
2022-11-08T09:21:45.915Z,20.7
2022-11-08T09:27:07.723Z,20.7
2022-11-08T09:32:46.437Z,20.7
2022-11-08T09:38:25.168Z,20.7
2022-11-08T09:43:48.199Z,20.7
2022-11-08T09:49:10.449Z,20.6
2022-11-08T09:54:50.919Z,20.6
2022-11-08T10:00:28.754Z,20.6
2022-11-08T10:06:12.645Z,20.6
2022-11-08T10:11:35.662Z,20.6
2022-11-08T10:17:25.956Z,20.6
2022-11-08T10:22:48.215Z,20.6
2022-11-08T10:28:28.978Z,20.6
2022-11-08T10:34:06.120Z,20.6
2022-11-08T10:39:44.232Z,20.6
2022-11-08T10:45:27.165Z,20.6
2022-11-08T10:51:07.133Z,20.6
2022-11-08T10:56:44.698Z,20.6
2022-11-08T11:02:24.380Z,20.6
2022-11-08T11:08:02.894Z,20.6
2022-11-08T11:13:39.861Z,20.6
2022-11-08T11:19:07.843Z,20.6
2022-11-08T11:24:45.024Z,20.6
2022-11-08T11:30:22.615Z,20.6
2022-11-08T11:36:01.036Z,20.6
2022-11-08T11:41:39.284Z,20.6
2022-11-08T11:47:47.307Z,20.6
2022-11-08T11:53:25.257Z,20.6
2022-11-08T11:59:09.068Z,20.6
2022-11-08T12:04:50.672Z,20.6
2022-11-08T12:10:14.111Z,20.6
2022-11-08T12:15:55.994Z,20.6
2022-11-08T12:21:54.144Z,20.6
2022-11-08T12:27:16.626Z,20.5
2022-11-08T12:32:56.279Z,20.5
2022-11-08T12:38:32.947Z,20.5
2022-11-08T12:44:11.449Z,20.5
2022-11-08T12:49:49.088Z,20.5
2022-11-08T12:55:31.124Z,20.6
2022-11-08T13:01:10.430Z,20.5
2022-11-08T13:06:53.647Z,20.5
2022-11-08T13:12:30.704Z,20.5
2022-11-08T13:18:09.095Z,20.5
2022-11-08T13:23:47.956Z,20.5
2022-11-08T13:29:51.456Z,20.5
2022-11-08T13:35:13.891Z,20.5
2022-11-08T13:40:55.780Z,20.5
2022-11-08T13:46:33.027Z,20.5
2022-11-08T13:52:12.352Z,20.5
2022-11-08T13:57:50.433Z,20.5
2022-11-08T14:03:28.879Z,20.5
2022-11-08T14:09:10.102Z,20.5
2022-11-08T14:14:53.772Z,20.5
2022-11-08T14:20:30.602Z,20.4
2022-11-08T14:26:15.314Z,20.5
2022-11-08T14:31:59.294Z,20.5
2022-11-08T14:37:39.784Z,20.4
2022-11-08T14:43:17.518Z,20.5
2022-11-08T14:48:56.602Z,20.4
2022-11-08T14:54:24.314Z,20.4
2022-11-08T15:00:02.648Z,20.4
2022-11-08T15:05:40.375Z,20.4
2022-11-08T15:11:03.045Z,20.4
2022-11-08T15:16:41.471Z,20.4
2022-11-08T15:22:24.579Z,20.4
2022-11-08T15:28:02.860Z,20.4
2022-11-08T15:33:46.803Z,20.4
2022-11-08T15:39:13.210Z,20.4
2022-11-08T15:44:34.900Z,20.4
2022-11-08T15:50:12.992Z,20.4
2022-11-08T15:55:50.678Z,20.4
2022-11-08T16:01:28.587Z,20.4
2022-11-08T16:06:51.370Z,20.4
2022-11-08T16:12:34.468Z,20.4
2022-11-08T16:18:02.148Z,20.4
2022-11-08T16:23:45.793Z,20.4
2022-11-08T16:29:07.652Z,20.3
2022-11-08T16:34:45.295Z,20.4
2022-11-08T16:40:07.391Z,20.4
2022-11-08T16:45:50.897Z,20.3
2022-11-08T16:51:41.691Z,20.3
2022-11-08T16:57:50.031Z,20.3
2022-11-08T17:03:12.890Z,20.3
2022-11-08T17:08:41.030Z,20.3
2022-11-08T17:14:18.888Z,20.4
2022-11-08T17:20:03.379Z,20.3
2022-11-08T17:26:18.359Z,20.3
2022-11-08T17:31:55.920Z,20.3
2022-11-08T17:37:35.554Z,20.3
2022-11-08T17:43:16.733Z,20.3
2022-11-08T17:48:54.736Z,20.3
2022-11-08T17:54:32.867Z,20.3
2022-11-08T17:59:57.413Z,20.3
2022-11-08T18:05:37.526Z,20.3
2022-11-08T18:11:19.784Z,20.3
2022-11-08T18:16:46.439Z,20.3
2022-11-08T18:22:09.286Z,20.3
2022-11-08T18:27:21.909Z,20.3
2022-11-08T18:33:04.463Z,20.3
2022-11-08T18:38:43.101Z,20.3
2022-11-08T18:44:24.065Z,20.2
2022-11-08T18:50:07.778Z,20.3
2022-11-08T18:55:45.787Z,20.3
2022-11-08T19:01:28.278Z,20.3
2022-11-08T19:06:35.184Z,20.2
2022-11-08T19:12:16.316Z,20.2
2022-11-08T19:17:37.986Z,20.2
2022-11-08T19:23:14.550Z,20.2
2022-11-08T19:28:54.644Z,20.2
2022-11-08T19:34:17.431Z,20.2
2022-11-08T19:39:59.527Z,20.2
2022-11-08T19:45:22.534Z,20.2
2022-11-08T19:50:29.725Z,20.3
2022-11-08T19:55:35.592Z,20.3
2022-11-08T20:01:21.085Z,20.2
2022-11-08T20:06:43.492Z,20.3
2022-11-08T20:12:07.384Z,20.3
2022-11-08T20:17:15.457Z,20.2
2022-11-08T20:22:53.675Z,20.3
2022-11-08T20:28:15.430Z,20.2
2022-11-08T20:34:02.007Z,20.2
2022-11-08T20:39:30.035Z,20.3
2022-11-08T20:44:51.580Z,20.3
2022-11-08T20:50:45.489Z,20.2
2022-11-08T20:56:28.332Z,20.3
2022-11-08T21:02:26.569Z,20.3
2022-11-08T21:10:43.174Z,20.2
2022-11-08T21:15:50.904Z,20.3
2022-11-08T21:21:40.502Z,20.3
2022-11-08T21:29:31.987Z,20.3
2022-11-08T21:35:10.902Z,20.3
2022-11-08T21:40:47.729Z,20.3
2022-11-08T21:46:29.731Z,20.3
2022-11-08T21:52:12.778Z,20.3
2022-11-08T21:57:56.316Z,20.2
2022-11-08T22:03:03.625Z,20.3
2022-11-08T22:08:32.681Z,20.2
2022-11-08T22:14:09.735Z,20.2
2022-11-08T22:19:54.327Z,20.2
2022-11-08T22:25:00.931Z,20.2
2022-11-08T22:30:22.479Z,20.2
2022-11-08T22:35:29.084Z,20.3
2022-11-08T22:40:55.824Z,20.2
2022-11-08T22:46:17.817Z,20.3
2022-11-08T22:51:43.476Z,20.3
2022-11-08T22:56:34.679Z,20.2
2022-11-08T23:01:25.995Z,20.2
2022-11-08T23:06:49.132Z,20.3
2022-11-08T23:11:56.310Z,20.2
2022-11-08T23:17:18.624Z,20.2
2022-11-08T23:22:40.759Z,20.2
2022-11-08T23:27:50.199Z,20.3
2022-11-08T23:32:41.239Z,20.2
2022-11-08T23:38:03.063Z,20.3
2022-11-08T23:43:28.062Z,20.2
2022-11-08T23:48:49.530Z,20.2
2022-11-08T23:53:56.125Z,20.3
2022-11-08T23:59:33.206Z,20.3
